Time;durP1;ratioP1;P1;durP2;ratioP2;P2;SDS_P1;SDS_P2;PMS_P1;PMS_P2;Temp;Humidity;BMP_temperature;BMP_pressure;BME280_temperature;BME280_humidity;BME280_pressure;Samples;Min_cycle;Max_cycle;Signal;HPM_P1;HPM_P2
2022/02/22 00:04:51;;;;;;;4.30;1.50;;;;;;;4.09;61.51;97183.32;219619;1271;24243;-69
2022/02/22 00:09:55;;;;;;;4.60;1.40;;;;;;;4.09;61.40;97186.98;219575;1271;24315;-70
2022/02/22 00:15:00;;;;;;;4.70;1.50;;;;;;;4.04;61.60;97198.54;219281;1271;22556;-69
2022/02/22 00:20:04;;;;;;;2.70;1.30;;;;;;;4.03;61.71;97208.41;219463;1271;22557;-68
2022/02/22 00:25:13;;;;;;;3.00;1.30;;;;;;;4.04;62.05;97221.60;219310;1273;26448;-69
2022/02/22 00:30:36;;;;;;;3.70;1.50;;;;;;;4.07;62.06;97231.41;219616;1271;22563;-68
2022/02/22 00:35:41;;;;;;;2.60;1.60;;;;;;;4.10;62.19;97239.45;219609;1271;22538;-68
2022/02/22 00:40:43;;;;;;;3.20;1.20;;;;;;;4.12;62.42;97250.92;219788;1271;24293;-69
2022/02/22 00:46:11;;;;;;;3.30;1.20;;;;;;;4.13;62.48;97266.60;219631;1271;24305;-69
2022/02/22 00:52:45;;;;;;;;;;;;;;;;;;;;;
2022/02/22 01:04:29;;;;;;;3.10;1.30;;;;;;;4.21;62.79;97299.74;219069;1273;24342;-69
2022/02/22 01:09:34;;;;;;;5.20;1.30;;;;;;;4.22;62.95;97305.20;219491;1271;22556;-69
2022/02/22 01:14:36;;;;;;;2.30;1.00;;;;;;;4.21;62.95;97309.13;219900;1271;22553;-68
2022/02/22 01:19:59;;;;;;;1.50;0.80;;;;;;;4.21;63.06;97322.92;219796;1271;22587;-69
2022/02/22 01:25:07;;;;;;;3.20;1.30;;;;;;;4.22;63.32;97330.48;219942;1271;22556;-68
2022/02/22 01:30:39;;;;;;;0.70;0.50;;;;;;;4.23;64.04;97341.34;219622;1271;25410;-67
2022/02/22 01:35:42;;;;;;;2.00;1.20;;;;;;;4.24;64.25;97357.97;219237;1273;26563;-69
2022/02/22 01:40:52;;;;;;;1.80;1.00;;;;;;;4.24;64.77;97365.77;219840;1270;22491;-68
2022/02/22 01:45:56;;;;;;;1.50;0.90;;;;;;;4.18;66.08;97380.20;219335;1273;25994;-68
2022/02/22 01:51:19;;;;;;;2.30;1.10;;;;;;;4.09;67.00;97388.40;219225;1273;22776;-68
2022/02/22 01:56:26;;;;;;;3.20;1.00;;;;;;;3.99;67.69;97395.70;220029;1271;25379;-68
2022/02/22 02:01:34;;;;;;;1.60;0.90;;;;;;;3.88;68.23;97403.10;219757;1271;25309;-68
2022/02/22 02:06:38;;;;;;;1.50;0.80;;;;;;;3.80;68.47;97408.30;219829;1271;25263;-68
2022/02/22 02:11:54;;;;;;;1.80;0.60;;;;;;;3.75;68.86;97413.48;219344;1271;22494;-69
2022/02/22 02:17:00;;;;;;;1.50;0.90;;;;;;;3.73;69.62;97426.15;219604;1271;25370;-67
2022/02/22 02:22:03;;;;;;;1.60;1.10;;;;;;;3.64;70.73;97438.35;219364;1271;22617;-67
2022/02/22 02:27:06;;;;;;;2.00;1.30;;;;;;;3.49;71.72;97445.18;219473;1272;24020;-69
2022/02/22 02:32:08;;;;;;;2.60;1.10;;;;;;;3.39;72.24;97461.33;219337;1271;26490;-68
2022/02/22 02:37:14;;;;;;;1.50;0.80;;;;;;;3.32;72.77;97474.70;219452;1271;25567;-67
2022/02/22 02:42:24;;;;;;;1.90;1.00;;;;;;;3.28;73.39;97480.44;219571;1271;25952;-67
2022/02/22 02:47:27;;;;;;;1.60;1.10;;;;;;;3.22;73.70;97485.28;219271;1271;22565;-68
2022/02/22 02:52:29;;;;;;;2.10;1.30;;;;;;;3.16;74.08;97494.73;219561;1271;24224;-68
2022/02/22 02:57:31;;;;;;;1.60;1.30;;;;;;;3.13;74.57;97510.05;219472;1271;22948;-68
2022/02/22 03:02:34;;;;;;;1.40;1.30;;;;;;;3.08;74.75;97522.23;219244;1271;25575;-68
2022/02/22 03:07:36;;;;;;;0.70;0.70;;;;;;;3.03;75.15;97529.66;219255;1271;22553;-69
2022/02/22 03:12:39;;;;;;;1.30;0.70;;;;;;;2.92;75.76;97539.73;219363;1271;22564;-69
2022/02/22 03:17:46;;;;;;;0.50;0.50;;;;;;;2.84;76.05;97567.27;219310;1271;22573;-68
2022/02/22 03:22:52;;;;;;;0.70;0.50;;;;;;;2.73;76.69;97591.77;219663;1271;22739;-68
2022/02/22 03:28:04;;;;;;;1.30;0.50;;;;;;;2.54;76.75;97590.20;219723;1271;22627;-68
2022/02/22 03:33:27;;;;;;;1.20;0.50;;;;;;;2.23;76.08;97598.26;219581;1271;22546;-70
2022/02/22 03:38:31;;;;;;;1.60;0.40;;;;;;;1.98;76.53;97614.33;219472;1271;22553;-68
2022/02/22 03:43:33;;;;;;;3.40;0.70;;;;;;;1.79;76.62;97613.95;219118;1271;22538;-68
2022/02/22 03:48:44;;;;;;;2.50;0.60;;;;;;;1.68;76.71;97631.83;219598;1271;22671;-69
2022/02/22 03:54:49;;;;;;;1.90;0.60;;;;;;;1.66;76.98;97644.48;219354;1271;25410;-69
2022/02/22 04:05:17;;;;;;;2.60;1.10;;;;;;;1.75;77.21;97666.45;219330;1273;24107;-68
2022/02/22 04:10:19;;;;;;;4.10;1.10;;;;;;;1.76;76.79;97668.86;219397;1272;22762;-68
2022/02/22 04:15:24;;;;;;;3.90;1.20;;;;;;;1.79;76.86;97678.18;219371;1271;22691;-69
2022/02/22 04:20:27;;;;;;;2.80;0.90;;;;;;;1.85;76.97;97685.66;219520;1271;22548;-69
2022/02/22 04:25:49;;;;;;;3.60;0.90;;;;;;;1.91;77.17;97702.20;219245;1271;22540;-68
2022/02/22 04:30:57;;;;;;;1.50;0.80;;;;;;;1.93;77.18;97708.39;219712;1271;22589;-67
2022/02/22 04:36:09;;;;;;;2.30;1.30;;;;;;;1.93;77.38;97707.81;219349;1271;22553;-68
2022/02/22 04:41:20;;;;;;;4.00;1.50;;;;;;;1.92;77.46;97713.36;219784;1271;22562;-68
2022/02/22 04:46:29;;;;;;;1.90;1.00;;;;;;;1.89;77.98;97718.41;219597;1271;24233;-68
2022/02/22 04:51:45;;;;;;;2.70;1.00;;;;;;;1.88;77.88;97722.23;219727;1270;25082;-69
2022/02/22 04:56:52;;;;;;;3.70;1.40;;;;;;;1.90;77.86;97725.23;219527;1271;24363;-69
2022/02/22 05:01:54;;;;;;;3.10;1.50;;;;;;;1.95;77.78;97733.29;219390;1273;22593;-69
2022/02/22 05:07:02;;;;;;;3.80;1.40;;;;;;;1.99;77.90;97738.54;219410;1271;24240;-68
2022/02/22 05:12:08;;;;;;;4.40;1.50;;;;;;;2.02;77.82;97745.11;219733;1271;22601;-68
2022/02/22 05:17:11;;;;;;;2.10;1.20;;;;;;;2.05;77.88;97752.35;219692;1271;22701;-68
2022/02/22 05:22:16;;;;;;;3.20;1.10;;;;;;;2.08;77.63;97765.32;219444;1271;24255;-68
2022/02/22 05:27:22;;;;;;;4.40;1.30;;;;;;;2.12;77.59;97776.00;219577;1271;22563;-68
2022/02/22 05:32:32;;;;;;;2.80;0.80;;;;;;;2.13;77.68;97783.84;219598;1271;22551;-69
2022/02/22 05:37:35;;;;;;;4.10;0.90;;;;;;;2.12;77.81;97791.80;219665;1271;22720;-69
2022/02/22 05:42:43;;;;;;;4.50;1.20;;;;;;;2.13;77.73;97795.77;219995;1271;25875;-69
2022/02/22 05:47:51;;;;;;;4.10;1.10;;;;;;;2.16;77.67;97806.88;219854;1271;24603;-66
2022/02/22 05:52:57;;;;;;;4.10;1.10;;;;;;;2.19;77.49;97814.34;220020;1271;22552;-69
2022/02/22 05:58:00;;;;;;;3.00;0.70;;;;;;;2.19;77.40;97821.33;219343;1271;22551;-68
2022/02/22 06:03:03;;;;;;;2.70;1.00;;;;;;;2.21;77.37;97835.91;220135;1271;24250;-69
2022/02/22 06:08:09;;;;;;;3.50;1.00;;;;;;;2.24;77.46;97838.54;219800;1271;22575;-69
2022/02/22 06:13:15;;;;;;;2.10;1.00;;;;;;;2.27;77.35;97845.31;219595;1271;22595;-68
2022/02/22 06:18:18;;;;;;;3.30;1.30;;;;;;;2.33;77.33;97851.63;219436;1271;22775;-68
2022/02/22 06:23:23;;;;;;;5.40;1.30;;;;;;;2.38;77.30;97857.36;219618;1271;22545;-68
2022/02/22 06:28:26;;;;;;;1.90;1.10;;;;;;;2.44;77.23;97871.77;219694;1271;22610;-67
2022/02/22 06:33:38;;;;;;;2.30;1.20;;;;;;;2.47;77.10;97877.48;219704;1271;22878;-68
2022/02/22 06:38:41;;;;;;;4.30;1.80;;;;;;;2.52;77.18;97885.77;219524;1271;22668;-67
2022/02/22 06:43:46;;;;;;;5.90;1.40;;;;;;;2.62;77.00;97891.00;219346;1271;24261;-68
2022/02/22 06:48:48;;;;;;;4.10;1.60;;;;;;;2.71;76.84;97903.67;219389;1271;22548;-68
2022/02/22 06:53:52;;;;;;;2.50;1.30;;;;;;;2.80;76.76;97913.09;219003;1271;22686;-68
2022/02/22 06:58:57;;;;;;;2.50;1.20;;;;;;;2.85;76.86;97922.58;218715;1273;22566;-69
2022/02/22 07:04:06;;;;;;;5.20;1.80;;;;;;;2.85;76.80;97932.77;218829;1271;22647;-68
2022/02/22 07:09:08;;;;;;;5.00;1.80;;;;;;;2.87;76.96;97930.83;218987;1271;22548;-69
2022/02/22 07:14:11;;;;;;;2.00;1.20;;;;;;;2.94;77.19;97933.92;219175;1273;25536;-69
2022/02/22 07:19:14;;;;;;;3.30;1.10;;;;;;;3.00;77.24;97945.39;219015;1272;25379;-69
2022/02/22 07:24:17;;;;;;;2.20;0.90;;;;;;;3.06;77.39;97955.94;219057;1271;261458;-69
2022/02/22 07:29:25;;;;;;;2.40;1.00;;;;;;;3.12;77.33;97966.28;219195;1272;25448;-70
2022/02/22 07:34:31;;;;;;;3.20;1.30;;;;;;;3.28;77.38;97975.31;219161;1273;25329;-68
2022/02/22 07:39:36;;;;;;;2.70;0.90;;;;;;;3.39;77.49;97986.33;219036;1273;24285;-69
2022/02/22 07:50:05;;;;;;;3.30;0.80;;;;;;;3.44;76.93;98001.52;218659;1274;26413;-69
2022/02/22 07:55:08;;;;;;;0.90;0.70;;;;;;;3.46;77.00;98006.89;219009;1274;22684;-68
2022/02/22 08:00:14;;;;;;;3.10;1.10;;;;;;;3.56;77.39;98014.23;219006;1274;22606;-69
2022/02/22 08:05:29;;;;;;;1.80;0.90;;;;;;;3.76;77.37;98024.81;218678;1274;22566;-69
2022/02/22 08:10:31;;;;;;;2.80;1.10;;;;;;;3.87;77.32;98024.26;220503;1273;25393;-69
2022/02/22 08:15:37;;;;;;;3.00;1.00;;;;;;;3.94;77.21;98028.71;218850;1271;25320;-69
2022/02/22 08:20:43;;;;;;;2.10;0.80;;;;;;;4.01;77.31;98036.98;219220;1271;22619;-69
2022/02/22 08:25:48;;;;;;;3.10;1.10;;;;;;;4.03;77.00;98035.83;219037;1271;22541;-68
2022/02/22 08:30:51;;;;;;;3.60;1.50;;;;;;;4.07;76.78;98042.20;218913;1271;22560;-69
2022/02/22 08:35:57;;;;;;;3.70;1.30;;;;;;;4.17;76.88;98050.21;219787;1271;23833;-68
2022/02/22 08:40:59;;;;;;;4.70;1.90;;;;;;;4.26;76.87;98052.40;219286;1271;22555;-69
2022/02/22 08:46:20;;;;;;;3.50;1.80;;;;;;;4.40;76.62;98052.23;218788;1271;25386;-69
2022/02/22 08:51:26;;;;;;;2.80;1.50;;;;;;;4.64;76.58;98056.10;221037;1271;22634;-69
2022/02/22 08:56:35;;;;;;;3.20;1.60;;;;;;;4.86;75.41;98056.13;218693;1271;22484;-70
2022/02/22 09:01:40;;;;;;;4.50;1.90;;;;;;;5.03;74.99;98066.61;219013;1271;22544;-70
2022/02/22 09:06:52;;;;;;;3.90;1.60;;;;;;;5.17;74.62;98072.46;219120;1269;22556;-70
2022/02/22 09:12:16;;;;;;;3.00;1.80;;;;;;;5.24;73.55;98080.09;219047;1271;22721;-70
2022/02/22 09:17:18;;;;;;;4.10;1.80;;;;;;;5.24;73.17;98081.42;219267;1271;22555;-70
2022/02/22 09:22:44;;;;;;;4.10;1.50;;;;;;;5.33;72.94;98085.02;219159;1271;25421;-70
2022/02/22 09:27:47;;;;;;;3.80;1.80;;;;;;;5.48;73.45;98085.02;219105;1271;22714;-71
2022/02/22 09:32:52;;;;;;;2.00;1.30;;;;;;;5.72;72.75;98091.55;219246;1271;22580;-69
2022/02/22 09:38:06;;;;;;;;;;;;;;;;;;;;;
2022/02/22 09:43:15;;;;;;;3.60;1.40;;;;;;;6.08;71.70;98106.39;219402;1271;22599;-69
2022/02/22 09:48:20;;;;;;;4.90;1.40;;;;;;;6.10;71.46;98116.02;219257;1271;22494;-69
2022/02/22 09:53:32;;;;;;;2.70;1.20;;;;;;;5.84;71.83;98126.80;219740;1271;22594;-69
2022/02/22 09:58:38;;;;;;;2.70;1.40;;;;;;;5.52;72.57;98135.52;219201;1271;22675;-68
2022/02/22 10:03:59;;;;;;;3.40;2.00;;;;;;;5.45;73.10;98139.26;219459;1271;22712;-68
2022/02/22 10:09:03;;;;;;;2.90;1.60;;;;;;;5.58;73.59;98149.17;219647;1271;22566;-70
2022/02/22 10:14:05;;;;;;;3.30;1.80;;;;;;;5.90;74.23;98149.80;219517;1271;24356;-70
2022/02/22 10:19:20;;;;;;;2.10;1.50;;;;;;;6.25;74.18;98144.16;219086;1272;22704;-69
2022/02/22 10:24:28;;;;;;;2.90;1.60;;;;;;;6.50;73.14;98139.21;219522;1274;22580;-69
2022/02/22 10:29:33;;;;;;;3.70;1.60;;;;;;;6.58;72.83;98145.02;219244;1271;22551;-70
2022/02/22 10:34:38;;;;;;;3.80;1.70;;;;;;;6.72;72.38;98146.94;219660;1271;23840;-69
2022/02/22 10:39:41;;;;;;;3.20;1.80;;;;;;;6.85;71.98;98152.75;219447;1274;22572;-69
2022/02/22 10:44:44;;;;;;;1.20;1.10;;;;;;;7.03;71.42;98150.52;219293;1271;24395;-69
2022/02/22 10:49:48;;;;;;;1.00;0.80;;;;;;;7.05;70.41;98151.52;218692;1273;22580;-69
2022/02/22 10:54:59;;;;;;;1.90;1.10;;;;;;;6.83;70.25;98162.50;218891;1273;22610;-67
2022/02/22 11:00:06;;;;;;;2.90;1.00;;;;;;;6.65;70.04;98172.33;218860;1271;22547;-69
2022/02/22 11:05:09;;;;;;;3.30;1.10;;;;;;;6.33;70.24;98200.13;219723;1271;22580;-68
2022/02/22 11:10:21;;;;;;;2.50;1.60;;;;;;;5.60;71.38;98201.02;218881;1271;22575;-68
2022/02/22 11:15:37;;;;;;;2.40;1.40;;;;;;;5.15;73.38;98206.98;218654;1273;22594;-68
2022/02/22 11:20:41;;;;;;;2.00;1.30;;;;;;;4.95;74.88;98207.83;218348;1271;22721;-68
2022/02/22 11:25:46;;;;;;;3.10;1.70;;;;;;;4.94;75.76;98222.48;218229;1272;22564;-67
2022/02/22 11:30:49;;;;;;;3.20;1.50;;;;;;;4.84;76.12;98228.46;223136;1270;22619;-69
2022/02/22 11:35:57;;;;;;;5.00;1.60;;;;;;;4.59;76.63;98241.75;219271;1271;25329;-69
2022/02/22 11:41:21;;;;;;;4.60;1.60;;;;;;;4.28;77.43;98243.62;219616;1270;22763;-69
2022/02/22 11:46:50;;;;;;;9.90;2.50;;;;;;;4.18;77.46;98236.36;219552;1271;25505;-70
2022/02/22 11:52:20;;;;;;;6.80;2.40;;;;;;;4.37;77.33;98236.70;219086;1273;26198;-68
2022/02/22 11:57:25;;;;;;;6.70;1.80;;;;;;;4.68;76.76;98243.05;219550;1271;24187;-69
2022/02/22 12:02:44;;;;;;;4.70;1.80;;;;;;;4.97;76.01;98253.97;219499;1270;22561;-69
2022/02/22 12:08:24;;;;;;;6.90;1.60;;;;;;;5.31;74.48;98259.71;219768;1270;22714;-68
2022/02/22 12:13:39;;;;;;;5.70;1.50;;;;;;;5.52;72.75;98262.79;219255;1271;26624;-70
2022/02/22 12:18:46;;;;;;;8.10;2.30;;;;;;;5.54;72.01;98268.20;219088;1271;24712;-69
2022/02/22 12:23:52;;;;;;;9.40;1.60;;;;;;;5.61;71.87;98261.71;219282;1271;22547;-70
2022/02/22 12:29:07;;;;;;;8.60;1.80;;;;;;;5.65;71.04;98263.52;219470;1272;26446;-69
2022/02/22 12:34:14;;;;;;;5.80;2.00;;;;;;;5.59;69.76;98277.81;219522;1270;22550;-69
2022/02/22 12:39:18;;;;;;;5.80;1.50;;;;;;;5.49;68.27;98283.73;219746;1271;25386;-69
2022/02/22 12:44:26;;;;;;;7.70;1.70;;;;;;;5.33;67.74;98284.11;219336;1271;22691;-69
2022/02/22 12:49:28;;;;;;;7.30;2.50;;;;;;;5.27;67.29;98286.70;219418;1271;22687;-70
2022/02/22 12:54:33;;;;;;;5.40;1.70;;;;;;;5.30;65.94;98299.52;218903;1271;22711;-69
2022/02/22 12:59:38;;;;;;;5.90;2.00;;;;;;;5.21;65.30;98298.16;218712;1271;24805;-70
2022/02/22 13:04:45;;;;;;;4.10;1.60;;;;;;;5.37;65.37;98305.35;219809;1271;24245;-69
2022/02/22 13:10:08;;;;;;;6.10;1.30;;;;;;;5.73;63.13;98305.86;218318;1271;22581;-69
2022/02/22 13:15:27;;;;;;;4.20;1.40;;;;;;;6.01;61.33;98311.80;226554;1269;24487;-69
2022/02/22 13:20:39;;;;;;;3.70;1.30;;;;;;;6.09;60.66;98311.41;218197;1271;25244;-68
2022/02/22 13:25:59;;;;;;;6.00;1.70;;;;;;;6.12;58.58;98315.34;217882;1271;22670;-69
2022/02/22 13:31:22;;;;;;;3.50;1.30;;;;;;;6.15;57.84;98328.52;218437;1271;22695;-68
2022/02/22 13:36:26;;;;;;;9.30;2.00;;;;;;;6.21;56.98;98310.85;217978;1271;25827;-69
2022/02/22 13:41:39;;;;;;;9.10;2.10;;;;;;;6.33;56.84;98319.96;217405;1272;22755;-69
2022/02/22 13:46:52;;;;;;;5.70;1.90;;;;;;;6.38;56.96;98323.52;217639;1270;25392;-69
2022/02/22 13:52:06;;;;;;;2.60;1.20;;;;;;;6.40;56.92;98326.64;221994;1271;24250;-69
2022/02/22 13:57:10;;;;;;;3.70;1.30;;;;;;;6.41;56.22;98346.81;218247;1272;24332;-69
2022/02/22 14:02:25;;;;;;;6.70;1.50;;;;;;;6.31;55.11;98352.73;219771;1271;23605;-69
2022/02/22 14:07:28;;;;;;;3.50;1.20;;;;;;;6.20;55.11;98365.53;219845;1271;22559;-69
2022/02/22 14:12:31;;;;;;;2.30;1.20;;;;;;;6.19;53.98;98366.93;218945;1271;22505;-70
2022/02/22 14:17:34;;;;;;;3.80;1.50;;;;;;;6.33;54.86;98371.20;218803;1270;25013;-69
2022/02/22 14:22:37;;;;;;;7.00;1.40;;;;;;;6.42;53.00;98374.75;218996;1271;24271;-68
2022/02/22 14:27:39;;;;;;;3.90;1.20;;;;;;;6.44;53.46;98381.23;218606;1271;24414;-69
2022/02/22 14:32:55;;;;;;;5.50;1.40;;;;;;;6.39;54.05;98396.77;219172;1270;22722;-69
2022/02/22 14:37:58;;;;;;;3.60;1.60;;;;;;;6.28;53.79;98400.89;219019;1270;24250;-69
2022/02/22 14:43:07;;;;;;;3.80;1.50;;;;;;;6.19;52.37;98403.41;218408;1271;22550;-69
2022/02/22 14:48:12;;;;;;;4.50;1.30;;;;;;;6.07;52.58;98398.90;218513;1270;24258;-69
2022/02/22 14:53:15;;;;;;;4.80;1.40;;;;;;;6.02;52.46;98406.90;218563;1270;22602;-69
2022/02/22 14:58:20;;;;;;;4.60;1.40;;;;;;;5.98;52.79;98418.21;218720;1271;22614;-68
2022/02/22 15:03:30;;;;;;;1.60;0.90;;;;;;;5.84;52.00;98424.20;218193;1273;22569;-68
2022/02/22 15:08:41;;;;;;;2.50;1.00;;;;;;;5.65;52.02;98416.74;218409;1271;23874;-69
2022/02/22 15:13:46;;;;;;;2.90;1.50;;;;;;;5.46;51.59;98420.39;218352;1273;24796;-70
2022/02/22 15:19:09;;;;;;;3.00;1.10;;;;;;;5.28;52.04;98433.36;218738;1271;25420;-69
2022/02/22 15:24:14;;;;;;;2.70;1.10;;;;;;;5.06;52.17;98442.80;221240;1271;22568;-69
2022/02/22 15:29:42;;;;;;;;;;;;;;;;;;;;;
2022/02/22 15:35:05;;;;;;;4.80;1.30;;;;;;;4.71;53.38;98457.23;221246;1271;22607;-69
2022/02/22 15:40:24;;;;;;;3.80;1.30;;;;;;;4.54;54.46;98459.41;222766;1273;22710;-70
2022/02/22 15:45:35;;;;;;;3.90;1.20;;;;;;;4.39;55.05;98467.70;219018;1271;23073;-69
2022/02/22 15:51:02;;;;;;;5.70;1.90;;;;;;;4.25;55.50;98472.02;221106;1271;22563;-70
2022/02/22 15:56:21;;;;;;;5.50;2.10;;;;;;;4.16;56.27;98482.45;220746;1273;22557;-70
2022/02/22 16:01:55;;;;;;;5.70;2.10;;;;;;;4.13;56.94;98480.99;220166;1271;22578;-69
2022/02/22 16:07:03;;;;;;;5.30;1.60;;;;;;;4.13;57.43;98488.98;218828;1273;22557;-70
2022/02/22 16:12:17;;;;;;;5.90;2.20;;;;;;;4.16;57.76;98493.46;219139;1271;25378;-69
2022/02/22 16:17:55;;;;;;;5.10;1.90;;;;;;;4.16;58.38;98505.73;219004;1271;22577;-70
2022/02/22 16:23:25;;;;;;;6.30;1.90;;;;;;;4.10;59.72;98519.67;221097;1271;22550;-69
2022/02/22 16:28:32;;;;;;;7.40;2.10;;;;;;;3.95;62.06;98532.90;220892;1273;23364;-70
2022/02/22 16:34:00;;;;;;;5.40;1.70;;;;;;;3.68;62.69;98533.53;221557;1271;23371;-70
2022/02/22 16:39:13;;;;;;;6.50;1.60;;;;;;;3.38;63.66;98539.54;221391;1271;22562;-69
2022/02/22 16:44:39;;;;;;;5.70;2.10;;;;;;;3.08;64.42;98544.95;221103;1271;23062;-69
2022/02/22 16:49:48;;;;;;;4.80;1.40;;;;;;;2.84;65.10;98549.43;219051;1273;22619;-70
2022/02/22 16:54:50;;;;;;;6.60;1.90;;;;;;;2.64;65.69;98551.73;219390;1271;25419;-69
2022/02/22 16:59:53;;;;;;;6.20;2.50;;;;;;;2.49;66.15;98558.91;218848;1273;22490;-69
2022/02/22 17:04:58;;;;;;;8.70;2.50;;;;;;;2.36;66.76;98557.70;219562;1271;25473;-69
2022/02/22 17:10:01;;;;;;;4.30;1.60;;;;;;;2.29;67.12;98556.48;219438;1271;24616;-70
2022/02/22 17:15:17;;;;;;;6.30;2.20;;;;;;;2.27;67.47;98561.82;221088;1271;25569;-69
2022/02/22 17:20:19;;;;;;;5.80;2.00;;;;;;;2.23;68.24;98564.52;219058;1273;26133;-70
2022/02/22 17:25:25;;;;;;;6.10;2.70;;;;;;;2.16;69.34;98563.12;219718;1271;26416;-70
2022/02/22 17:30:30;;;;;;;15.00;7.90;;;;;;;2.10;69.40;98562.08;220035;1271;22547;-70
2022/02/22 17:35:32;;;;;;;5.70;2.20;;;;;;;2.06;69.71;98555.73;219592;1271;23511;-70
2022/02/22 17:40:35;;;;;;;9.40;2.90;;;;;;;2.03;69.86;98559.38;219353;1271;25389;-71
2022/02/22 17:45:41;;;;;;;9.40;3.20;;;;;;;2.02;69.99;98559.98;219242;1272;22588;-69
2022/02/22 17:50:44;;;;;;;9.70;3.90;;;;;;;2.04;70.24;98562.62;219439;1272;22618;-69
2022/02/22 17:55:50;;;;;;;11.40;4.90;;;;;;;2.08;70.49;98564.96;219232;1271;22568;-69
2022/02/22 18:01:23;;;;;;;10.10;5.70;;;;;;;2.13;70.80;98571.00;219296;1273;25426;-70
2022/02/22 18:06:40;;;;;;;12.70;5.20;;;;;;;2.17;70.69;98579.85;220053;1270;25396;-69
2022/02/22 18:12:12;;;;;;;10.30;3.80;;;;;;;2.22;70.62;98586.81;219618;1271;22563;-69
2022/02/22 18:17:15;;;;;;;8.80;3.40;;;;;;;2.29;70.70;98592.27;219085;1273;22487;-69
2022/02/22 18:22:18;;;;;;;8.00;2.80;;;;;;;2.37;70.71;98591.34;219777;1271;25267;-69
2022/02/22 18:27:23;;;;;;;8.20;2.90;;;;;;;2.44;70.57;98585.17;219471;1271;25392;-70
2022/02/22 18:32:25;;;;;;;7.80;2.80;;;;;;;2.50;70.59;98585.16;219374;1271;26497;-70
2022/02/22 18:37:28;;;;;;;7.80;3.60;;;;;;;2.53;70.58;98582.40;219683;1271;24977;-70
2022/02/22 18:42:40;;;;;;;11.70;3.80;;;;;;;2.54;70.49;98583.02;219280;1271;25422;-70
2022/02/22 18:47:43;;;;;;;8.40;3.30;;;;;;;2.54;70.53;98580.73;219779;1271;25407;-69
2022/02/22 18:52:46;;;;;;;10.90;3.40;;;;;;;2.51;70.44;98586.29;221918;1271;25381;-69
2022/02/22 18:57:53;;;;;;;12.50;3.80;;;;;;;2.47;70.62;98590.83;219239;1272;25395;-68
2022/02/22 19:02:56;;;;;;;11.50;4.40;;;;;;;2.46;70.41;98583.14;219749;1270;24374;-70
2022/02/22 19:08:05;;;;;;;12.60;4.40;;;;;;;2.44;70.60;98581.98;219136;1273;22658;-69
2022/02/22 19:13:08;;;;;;;13.40;5.00;;;;;;;2.42;70.74;98580.95;219662;1271;24430;-69
2022/02/22 19:18:18;;;;;;;10.20;4.50;;;;;;;2.38;70.52;98585.23;219589;1271;26059;-69
2022/02/22 19:23:25;;;;;;;11.10;4.20;;;;;;;2.30;70.49;98589.33;219202;1273;256193;-70
2022/02/22 19:28:31;;;;;;;11.00;5.00;;;;;;;2.17;70.58;98586.36;219576;1271;24172;-69
2022/02/22 19:33:34;;;;;;;13.50;6.40;;;;;;;2.04;70.94;98591.55;219292;1271;26419;-70
2022/02/22 19:38:37;;;;;;;11.20;4.60;;;;;;;1.91;71.36;98585.90;220741;1271;22480;-70
2022/02/22 19:43:43;;;;;;;7.20;4.30;;;;;;;1.83;71.56;98583.84;220522;1273;24982;-70
2022/02/22 19:48:54;;;;;;;9.60;4.20;;;;;;;1.80;71.84;98584.42;220949;1271;22714;-70
2022/02/22 19:53:56;;;;;;;9.80;4.20;;;;;;;1.80;71.92;98580.15;220633;1272;22544;-70
2022/02/22 19:58:59;;;;;;;11.70;4.30;;;;;;;1.80;71.96;98582.67;219657;1272;23989;-70
2022/02/22 20:04:02;;;;;;;13.20;4.90;;;;;;;1.79;71.98;98575.38;219599;1271;23849;-69
2022/02/22 20:09:04;;;;;;;13.50;4.90;;;;;;;1.78;72.12;98579.35;219709;1271;22539;-69
2022/02/22 20:14:20;;;;;;;14.60;5.60;;;;;;;1.78;72.29;98583.00;220055;1271;24111;-70
2022/02/22 20:19:29;;;;;;;27.80;12.50;;;;;;;1.80;72.35;98581.77;220809;1271;22545;-70
2022/02/22 20:24:42;;;;;;;13.10;5.90;;;;;;;1.83;72.45;98581.41;220686;1271;25176;-70
2022/02/22 20:29:48;;;;;;;18.30;6.90;;;;;;;1.81;71.99;98586.92;220678;1271;22719;-71
2022/02/22 20:34:54;;;;;;;21.10;7.10;;;;;;;1.80;72.21;98586.26;220658;1271;22609;-69
2022/02/22 20:39:59;;;;;;;20.70;7.80;;;;;;;1.81;72.27;98587.81;220972;1271;25362;-70
2022/02/22 20:45:02;;;;;;;18.10;8.00;;;;;;;1.81;72.17;98593.27;221262;1273;25274;-69
2022/02/22 20:50:11;;;;;;;27.50;9.80;;;;;;;1.83;72.03;98594.84;219513;1271;23575;-69
2022/02/22 20:55:36;;;;;;;27.10;9.80;;;;;;;1.83;71.62;98593.88;219368;1271;25387;-69
2022/02/22 21:00:39;;;;;;;25.90;10.50;;;;;;;1.79;71.74;98591.64;220681;1271;22585;-69
2022/02/22 21:05:41;;;;;;;30.60;12.60;;;;;;;1.75;71.77;98598.10;219822;1271;25267;-69
2022/02/22 21:10:52;;;;;;;42.10;16.70;;;;;;;1.69;71.40;98593.91;219547;1271;22572;-71
2022/02/22 21:15:54;;;;;;;43.10;17.90;;;;;;;1.58;71.54;98595.93;219737;1273;26511;-70
2022/02/22 21:20:57;;;;;;;48.10;19.40;;;;;;;1.45;71.57;98598.16;219402;1273;22572;-69
2022/02/22 21:25:59;;;;;;;42.80;18.50;;;;;;;1.35;71.82;98601.28;219463;1273;22560;-70
2022/02/22 21:31:02;;;;;;;37.90;15.60;;;;;;;1.25;71.92;98601.54;219439;1273;22563;-70
2022/02/22 21:36:05;;;;;;;33.80;12.90;;;;;;;1.17;72.11;98604.92;220650;1273;22572;-70
2022/02/22 21:41:27;;;;;;;31.60;12.40;;;;;;;1.15;72.38;98605.94;220858;1273;22567;-70
2022/02/22 21:46:29;;;;;;;35.20;12.00;;;;;;;1.16;72.13;98604.73;220809;1271;22553;-68
2022/02/22 21:51:42;;;;;;;33.80;12.00;;;;;;;1.19;72.20;98599.58;219120;1273;22604;-69
2022/02/22 21:56:44;;;;;;;30.10;11.20;;;;;;;1.26;72.07;98598.97;219837;1273;24713;-70
2022/02/22 22:01:47;;;;;;;28.60;11.40;;;;;;;1.34;71.79;98593.87;219665;1271;22571;-70
2022/02/22 22:06:51;;;;;;;28.60;10.70;;;;;;;1.44;71.90;98589.69;220137;1271;23073;-71
2022/02/22 22:11:53;;;;;;;26.60;10.50;;;;;;;1.55;71.65;98589.96;219686;1271;23610;-69
2022/02/22 22:16:55;;;;;;;30.30;10.70;;;;;;;1.67;71.27;98596.52;219327;1273;24199;-69
2022/02/22 22:22:15;;;;;;;29.30;10.10;;;;;;;1.75;71.15;98598.54;219356;1273;22546;-69
2022/02/22 22:27:20;;;;;;;24.10;9.50;;;;;;;1.81;70.56;98596.23;218973;1273;22567;-69
2022/02/22 22:32:23;;;;;;;19.80;9.00;;;;;;;1.88;70.71;98595.92;219187;1273;24277;-70
2022/02/22 22:37:26;;;;;;;24.40;8.80;;;;;;;1.93;70.26;98586.04;219276;1273;22561;-71
2022/02/22 22:42:37;;;;;;;28.40;11.20;;;;;;;1.93;70.00;98585.09;219456;1271;22558;-69
2022/02/22 22:47:40;;;;;;;29.90;11.40;;;;;;;1.92;70.15;98577.88;219556;1271;22633;-69
2022/02/22 22:52:48;;;;;;;24.50;9.70;;;;;;;1.91;69.88;98577.06;219573;1273;22541;-71
2022/02/22 22:58:01;;;;;;;26.70;9.60;;;;;;;1.93;69.88;98574.81;219413;1271;25328;-69
2022/02/22 23:03:04;;;;;;;28.70;9.40;;;;;;;1.96;69.99;98571.82;219787;1270;22776;-68
2022/02/22 23:24:02;;;;;;;20.90;7.80;;;;;;;2.01;69.46;98548.77;219242;1271;25280;-69
2022/02/22 23:29:09;;;;;;;20.60;7.00;;;;;;;2.03;69.58;98546.85;219383;1273;26468;-68
2022/02/22 23:34:15;;;;;;;21.80;7.50;;;;;;;2.03;69.58;98525.77;218904;1273;22589;-68
2022/02/22 23:39:20;;;;;;;17.10;6.70;;;;;;;2.08;69.67;98524.36;219298;1273;22618;-68
2022/02/22 23:44:22;;;;;;;20.10;6.70;;;;;;;2.12;69.73;98517.83;219185;1273;22569;-69
2022/02/22 23:49:25;;;;;;;15.30;5.60;;;;;;;2.18;69.63;98512.36;219767;1271;26437;-69
2022/02/22 23:54:27;;;;;;;12.90;5.30;;;;;;;2.23;69.36;98503.79;219352;1271;25325;-68
2022/02/22 23:59:32;;;;;;;21.50;5.40;;;;;;;2.28;69.27;98494.61;219152;1273;25538;-69
